This is the latest recevied weather packets stored in our database for station/object AG1T-20. If no packets are shown the sender has not sent any weather packets the latest 10 day(s).
| Time | Temp. | Humidity | Pressure | Rain* | Wind** | Luminosity | Snow |
|---|---|---|---|---|---|---|---|
| 1787904004 | 22.22° C | 47% | 1020.9 hPa | 0 mm | - | 0 W/m² | - |
| 1787903404 | 21.67° C | 49% | 1020.4 hPa | 0 mm | - | 0 W/m² | - |
| 1787902804 | 21.67° C | 50% | 1020.4 hPa | 0 mm | - | 0 W/m² | - |
| 1787902205 | 21.67° C | 50% | 1020.4 hPa | 0 mm | - | 0 W/m² | - |
| 1787901604 | 21.67° C | 51% | 1020.4 hPa | 0 mm | - | 0 W/m² | - |
| 1787901004 | 21.11° C | 52% | 1020.4 hPa | 0 mm | - | 0 W/m² | - |
| 1787900405 | 21.11° C | 54% | 1020.4 hPa | 0 mm | - | 0 W/m² | - |
| 1787899804 | 22.22° C | 49% | 1021.1 hPa | 0 mm | - | 0 W/m² | - |
| 1787899204 | 23.89° C | 40% | 1021.1 hPa | 0 mm | - | 0 W/m² | - |
| 1787898605 | 24.44° C | 37% | 1021.1 hPa | 0 mm | - | 0 W/m² | - |
| 1787898004 | 24.44° C | 39% | 1021.1 hPa | 0 mm | - | 0 W/m² | - |
| 1787897405 | 23.89° C | 40% | 1021.1 hPa | 0 mm | - | 0 W/m² | - |
| 1787896804 | 24.44° C | 41% | 1021.1 hPa | 0 mm | - | 0 W/m² | - |
| 1787896205 | 24.44° C | 40% | 1022.2 hPa | 0 mm | - | 0 W/m² | - |
| 1787895604 | 24.44° C | 41% | 1022.2 hPa | 0 mm | - | 0 W/m² | - |
| 1787895004 | 24.44° C | 41% | 1022.2 hPa | 0 mm | - | 0 W/m² | - |
| 1787894404 | 25° C | 40% | 1022.2 hPa | 0 mm | - | 0 W/m² | - |
| 1787893805 | 24.44° C | 42% | 1022.2 hPa | 0 mm | - | 0 W/m² | - |
| 1787893204 | 24.44° C | 42% | 1022.2 hPa | 0 mm | - | 0 W/m² | - |
| 1787892604 | 25° C | 40% | 1020.8 hPa | 0 mm | - | 0 W/m² | - |
| 1787892005 | 25° C | 38% | 1020.8 hPa | 0 mm | - | 0 W/m² | - |
| 1787891404 | 25° C | 39% | 1020.8 hPa | 0 mm | - | 0 W/m² | - |
| 1787890804 | 25.56° C | 36% | 1020.8 hPa | 0 mm | - | 0 W/m² | - |
| 1787890205 | 26.11° C | 34% | 1020.8 hPa | 0 mm | - | 0 W/m² | - |
| 1787889605 | 26.11° C | 35% | 1020.8 hPa | 0 mm | - | 0 W/m² | - |
* Rain latest hour (hover to see other rain measurements)
** Current wind speed in m/s (hover to see current wind gust speed)